Time;durP1;ratioP1;P1;durP2;ratioP2;P2;SDS_P1;SDS_P2;PMS_P1;PMS_P2;Temp;Humidity;BMP_temperature;BMP_pressure;BME280_temperature;BME280_humidity;BME280_pressure;Samples;Min_cycle;Max_cycle;Signal;HPM_P1;HPM_P2
2022/12/04 00:00:30;;;;;;;32.08;18.67;;;;;;;3.01;100.00;99265.38;5079924;28;20044;-86
2022/12/04 00:03:19;;;;;;;31.88;19.48;;;;;;;2.91;100.00;99263.06;5082682;28;20066;-87
2022/12/04 00:06:11;;;;;;;27.58;17.52;;;;;;;3.00;100.00;99261.94;5097585;28;20483;-88
2022/12/04 00:08:56;;;;;;;31.50;18.77;;;;;;;2.87;100.00;99250.25;5082353;28;20403;-87
2022/12/04 00:11:41;;;;;;;34.65;19.33;;;;;;;2.79;100.00;99256.47;5053397;28;20129;-83
2022/12/04 00:14:26;;;;;;;31.10;18.42;;;;;;;2.91;100.00;99254.44;5085797;28;20031;-86
2022/12/04 00:17:11;;;;;;;30.73;19.52;;;;;;;2.92;100.00;99256.97;5092432;28;20506;-86
2022/12/04 00:19:55;;;;;;;32.65;18.77;;;;;;;2.91;100.00;99257.03;5107496;28;20091;-86
2022/12/04 00:22:40;;;;;;;32.63;19.05;;;;;;;2.93;100.00;99263.00;5078037;28;20047;-87
2022/12/04 00:25:25;;;;;;;38.35;19.35;;;;;;;2.89;100.00;99254.47;5088524;28;20474;-84
2022/12/04 00:28:10;;;;;;;31.90;20.38;;;;;;;2.78;100.00;99257.38;5098056;28;20036;-86
2022/12/04 00:30:55;;;;;;;33.92;20.30;;;;;;;2.83;100.00;99268.47;5092803;28;20077;-85
2022/12/04 00:33:40;;;;;;;35.63;21.25;;;;;;;2.78;100.00;99259.09;5085486;28;20047;-88
2022/12/04 00:36:27;;;;;;;32.20;20.05;;;;;;;2.79;100.00;99253.88;5050964;28;20040;-88
2022/12/04 00:39:11;;;;;;;31.98;19.45;;;;;;;2.78;100.00;99257.38;5076081;28;20041;-86
2022/12/04 00:41:56;;;;;;;31.83;19.10;;;;;;;2.77;100.00;99263.47;5059899;28;20063;-88
2022/12/04 00:44:40;;;;;;;30.70;19.10;;;;;;;2.75;100.00;99262.66;5073540;28;20078;-88
2022/12/04 00:47:26;;;;;;;36.97;19.70;;;;;;;2.81;100.00;99261.59;5075182;28;20115;-87
2022/12/04 00:50:10;;;;;;;27.38;17.85;;;;;;;2.82;100.00;99274.50;5065341;28;20028;-87
2022/12/04 00:52:56;;;;;;;30.52;18.58;;;;;;;2.78;100.00;99259.97;5054006;28;20047;-88
2022/12/04 00:55:42;;;;;;;32.05;19.85;;;;;;;2.78;100.00;99275.50;5058066;28;20479;-88
2022/12/04 00:58:27;;;;;;;33.53;20.00;;;;;;;2.84;100.00;99271.88;5081259;28;20044;-88
2022/12/04 01:01:16;;;;;;;33.15;19.83;;;;;;;2.78;100.00;99275.50;5097991;28;20028;-89
2022/12/04 01:04:01;;;;;;;31.73;19.42;;;;;;;2.84;100.00;99274.47;5102672;28;20032;-88
2022/12/04 01:06:46;;;;;;;29.95;19.42;;;;;;;2.88;100.00;99272.63;5108661;28;20032;-88
2022/12/04 01:09:32;;;;;;;33.03;20.25;;;;;;;2.82;100.00;99271.91;5081782;28;20765;-89
2022/12/04 01:12:16;;;;;;;35.60;20.58;;;;;;;2.82;100.00;99271.09;5096296;28;20043;-88
2022/12/04 01:15:02;;;;;;;35.92;20.55;;;;;;;2.79;100.00;99268.59;5053552;28;20052;-88
2022/12/04 01:17:47;;;;;;;31.05;20.30;;;;;;;2.77;100.00;99262.59;5062443;28;20042;-86
2022/12/04 01:20:32;;;;;;;36.38;20.88;;;;;;;2.80;100.00;99265.09;5061471;28;20551;-88
2022/12/04 01:23:18;;;;;;;32.83;20.20;;;;;;;2.80;100.00;99259.94;5056321;28;20040;-88
2022/12/04 01:26:03;;;;;;;35.45;21.50;;;;;;;2.81;100.00;99256.44;5047970;28;20064;-89
2022/12/04 01:28:47;;;;;;;31.75;20.13;;;;;;;2.81;100.00;99246.09;5047843;28;20115;-87
2022/12/04 01:31:33;;;;;;;32.75;20.50;;;;;;;2.76;100.00;99235.88;5052943;28;20052;-87
2022/12/04 01:34:17;;;;;;;32.35;20.65;;;;;;;2.78;100.00;99244.44;5057945;28;20502;-86
2022/12/04 01:37:02;;;;;;;31.10;18.45;;;;;;;2.87;100.00;99245.94;5074420;28;20036;-87
2022/12/04 01:39:47;;;;;;;29.73;18.35;;;;;;;2.86;100.00;99246.81;5079175;28;20036;-87
2022/12/04 01:42:32;;;;;;;30.23;18.75;;;;;;;2.82;100.00;99250.38;5051946;28;20065;-85
2022/12/04 01:45:38;;;;;;;28.95;18.23;;;;;;;2.86;100.00;99249.38;5068945;28;20063;-88
2022/12/04 01:48:29;;;;;;;31.40;18.90;;;;;;;2.84;100.00;99248.56;5058056;28;20547;-88
2022/12/04 01:51:29;;;;;;;31.45;18.15;;;;;;;2.83;100.00;99246.91;5076183;28;20059;-87
2022/12/04 01:54:21;;;;;;;30.88;18.55;;;;;;;2.79;100.00;99246.13;5065551;28;20119;-85
2022/12/04 01:57:11;;;;;;;31.98;19.52;;;;;;;2.71;100.00;99236.00;5060832;28;20396;-89
2022/12/04 02:00:00;;;;;;;29.95;18.65;;;;;;;2.68;100.00;99235.22;5056315;28;20066;-88
2022/12/04 02:02:45;;;;;;;33.50;19.92;;;;;;;2.68;100.00;99233.50;5041171;28;20040;-87
2022/12/04 02:05:30;;;;;;;34.63;20.27;;;;;;;2.73;100.00;99235.09;5080174;28;20032;-85
2022/12/04 02:08:15;;;;;;;33.85;18.85;;;;;;;2.71;100.00;99235.16;5077917;28;20044;-86
2022/12/04 02:11:22;;;;;;;30.88;18.48;;;;;;;2.68;100.00;99232.66;5057561;28;20430;-85
2022/12/04 02:14:24;;;;;;;33.15;19.85;;;;;;;2.63;100.00;99242.31;5076785;28;20044;-85
2022/12/04 02:17:17;;;;;;;31.95;18.40;;;;;;;2.70;100.00;99246.41;5073905;28;20096;-88
2022/12/04 02:20:17;;;;;;;30.65;18.80;;;;;;;2.76;100.00;99253.16;5060427;28;20037;-87
2022/12/04 02:23:14;;;;;;;31.38;19.27;;;;;;;2.68;100.00;99245.59;5053583;28;20051;-87
2022/12/04 02:26:37;;;;;;;30.85;19.58;;;;;;;2.66;100.00;99240.44;5047069;28;20047;-88
2022/12/04 02:29:28;;;;;;;35.55;20.42;;;;;;;2.69;100.00;99237.78;5042481;28;20094;-87
2022/12/04 02:32:21;;;;;;;34.20;19.77;;;;;;;2.69;100.00;99227.44;5077674;28;20499;-85
2022/12/04 02:35:15;;;;;;;30.95;19.83;;;;;;;2.66;100.00;99224.09;5057225;28;20495;-84
2022/12/04 02:38:09;;;;;;;30.90;19.73;;;;;;;2.69;100.00;99226.59;5060677;28;20416;-86
2022/12/04 02:41:04;;;;;;;30.63;19.42;;;;;;;2.71;100.00;99229.97;5042371;28;20078;-86
2022/12/04 02:43:53;;;;;;;32.58;19.25;;;;;;;2.71;100.00;99241.19;5058561;28;20054;-86
2022/12/04 02:46:42;;;;;;;30.55;18.50;;;;;;;2.71;100.00;99230.81;5070971;28;20113;-85
2022/12/04 02:49:54;;;;;;;31.73;19.15;;;;;;;2.78;100.00;99217.72;5040942;28;20047;-87
2022/12/04 02:52:46;;;;;;;29.92;18.88;;;;;;;2.72;100.00;99216.16;5057705;28;20060;-85
2022/12/04 02:55:36;;;;;;;30.33;19.63;;;;;;;2.75;100.00;99203.13;5057674;28;20036;-84
2022/12/04 02:58:30;;;;;;;33.42;19.38;;;;;;;2.76;100.00;99217.75;5091997;28;20036;-85
2022/12/04 03:01:19;;;;;;;33.28;19.00;;;;;;;2.75;100.00;99226.41;5058147;28;20032;-85
2022/12/04 03:04:14;;;;;;;31.95;19.48;;;;;;;2.79;100.00;99224.59;5042448;28;20044;-86
2022/12/04 03:07:08;;;;;;;31.05;18.80;;;;;;;2.78;100.00;99223.75;5081472;28;20040;-87
2022/12/04 03:09:58;;;;;;;31.30;19.48;;;;;;;2.73;100.00;99225.59;5022415;28;20387;-87
2022/12/04 03:12:57;;;;;;;32.28;19.42;;;;;;;2.75;100.00;99225.56;5059035;28;20040;-85
2022/12/04 03:15:47;;;;;;;32.25;20.50;;;;;;;2.70;100.00;99208.44;5067522;28;20067;-87
2022/12/04 03:18:45;;;;;;;28.35;17.83;;;;;;;2.71;100.00;99199.78;5073932;28;20036;-88
2022/12/04 03:21:37;;;;;;;31.23;19.08;;;;;;;2.75;100.00;99202.28;5071927;28;20451;-87
2022/12/04 03:24:37;;;;;;;31.13;19.80;;;;;;;2.78;100.00;99202.19;5043944;28;20072;-86
2022/12/04 03:27:36;;;;;;;28.92;19.00;;;;;;;2.71;100.00;99201.50;5047271;28;20501;-87
2022/12/04 03:30:23;;;;;;;30.70;18.75;;;;;;;2.74;100.00;99211.78;5069358;28;20042;-87
2022/12/04 03:33:18;;;;;;;27.55;18.00;;;;;;;2.77;100.00;99218.59;5058781;28;20041;-88
2022/12/04 03:36:24;;;;;;;31.80;19.80;;;;;;;2.76;100.00;99204.81;5043411;28;20093;-87
2022/12/04 03:39:24;;;;;;;32.25;19.83;;;;;;;2.74;100.00;99208.34;5070259;28;20052;-87
2022/12/04 03:42:23;;;;;;;35.45;20.30;;;;;;;2.74;100.00;99206.63;5055861;28;20036;-87
2022/12/04 03:45:11;;;;;;;33.40;19.85;;;;;;;2.72;100.00;99205.81;5069579;28;20498;-87
2022/12/04 03:47:57;;;;;;;35.10;19.75;;;;;;;2.73;100.00;99204.03;5055106;28;20050;-88
2022/12/04 03:51:11;;;;;;;31.25;19.17;;;;;;;2.75;100.00;99215.22;5045894;28;20040;-84
2022/12/04 03:54:01;;;;;;;31.63;18.63;;;;;;;2.76;100.00;99214.34;5055813;28;20059;-85
2022/12/04 03:56:51;;;;;;;30.92;18.25;;;;;;;2.81;100.00;99215.03;5068281;28;20058;-88
2022/12/04 03:59:42;;;;;;;27.45;17.40;;;;;;;2.78;100.00;99210.81;5053552;28;20448;-87
2022/12/04 04:02:33;;;;;;;28.70;17.77;;;;;;;2.72;100.00;99190.28;5055096;28;20406;-86
2022/12/04 04:05:19;;;;;;;30.33;18.52;;;;;;;2.73;100.00;99198.88;5054694;28;20036;-87
2022/12/04 04:08:26;;;;;;;31.98;17.95;;;;;;;2.76;100.00;99199.63;5070881;28;20067;-86
2022/12/04 04:11:16;;;;;;;31.17;16.83;;;;;;;2.73;100.00;99199.72;5044902;28;20408;-86
2022/12/04 04:26:43;;;;;;;24.45;16.02;;;;;;;2.53;100.00;99202.91;5068883;28;19935;-85
2022/12/04 04:29:28;;;;;;;22.65;14.73;;;;;;;2.56;100.00;99205.41;5045858;28;20119;-86
2022/12/04 04:32:38;;;;;;;27.63;15.70;;;;;;;2.62;100.00;99210.41;5066453;28;20048;-89
2022/12/04 04:35:51;;;;;;;24.63;16.05;;;;;;;2.59;100.00;99215.66;5074184;28;20407;-88
2022/12/04 04:38:51;;;;;;;23.37;14.93;;;;;;;2.55;100.00;99207.13;5067772;28;20066;-87
2022/12/04 04:41:46;;;;;;;26.00;15.18;;;;;;;2.56;100.00;99201.06;5089872;28;20040;-85
2022/12/04 04:44:44;;;;;;;23.98;15.40;;;;;;;2.53;100.00;99202.91;5094032;28;20035;-87
2022/12/04 04:47:59;;;;;;;27.70;15.25;;;;;;;2.51;100.00;99200.38;5088871;28;20043;-88
2022/12/04 04:50:44;;;;;;;27.23;16.30;;;;;;;2.50;100.00;99206.41;5087751;28;20040;-88
2022/12/04 04:53:40;;;;;;;26.08;15.13;;;;;;;2.54;100.00;99192.50;5059888;28;20573;-86
2022/12/04 04:56:25;;;;;;;26.70;16.45;;;;;;;2.48;100.00;99197.84;5089998;28;20181;-87
2022/12/04 04:59:11;;;;;;;27.45;16.90;;;;;;;2.41;100.00;99193.75;5077503;28;20414;-86
2022/12/04 05:01:57;;;;;;;28.13;17.30;;;;;;;2.50;100.00;99198.66;5089562;28;20032;-86
2022/12/04 05:04:41;;;;;;;27.20;16.88;;;;;;;2.43;100.00;99187.63;5072801;28;20038;-87
2022/12/04 05:07:26;;;;;;;25.90;16.92;;;;;;;2.45;100.00;99182.41;5060149;28;20044;-88
2022/12/04 05:10:11;;;;;;;27.65;17.15;;;;;;;2.42;100.00;99193.69;5065974;28;20104;-88
2022/12/04 05:12:55;;;;;;;26.42;17.27;;;;;;;2.50;100.00;99198.66;5092938;28;20399;-86
2022/12/04 05:15:41;;;;;;;30.33;17.60;;;;;;;2.46;100.00;99197.06;5078700;28;20115;-87
2022/12/04 05:18:26;;;;;;;30.35;17.60;;;;;;;2.44;100.00;99196.25;5057919;28;20087;-88
2022/12/04 05:21:18;;;;;;;30.67;18.98;;;;;;;2.44;100.00;99202.28;5048075;28;20055;-89
2022/12/04 05:24:03;;;;;;;29.55;18.75;;;;;;;2.47;100.00;99193.56;5030048;28;20077;-87
2022/12/04 05:26:47;;;;;;;31.38;19.20;;;;;;;2.46;100.00;99184.94;5001468;28;20088;-87
2022/12/04 05:29:32;;;;;;;31.90;17.58;;;;;;;2.44;100.00;99180.72;5020007;28;20424;-88
2022/12/04 05:32:17;;;;;;;30.33;17.90;;;;;;;2.43;100.00;99169.53;5014826;28;20057;-89
2022/12/04 05:35:02;;;;;;;31.85;18.77;;;;;;;2.37;100.00;99171.47;5017380;28;20214;-89
2022/12/04 05:37:46;;;;;;;33.95;20.17;;;;;;;2.32;100.00;99177.59;5005795;28;20397;-85
2022/12/04 05:40:31;;;;;;;29.95;19.00;;;;;;;2.29;100.00;99175.09;5030656;28;20877;-87
2022/12/04 05:43:19;;;;;;;31.88;19.02;;;;;;;2.30;100.00;99181.94;5029895;28;20044;-86
2022/12/04 05:46:07;;;;;;;28.95;19.00;;;;;;;2.35;100.00;99184.41;5004974;28;20120;-85
2022/12/04 05:48:51;;;;;;;33.10;19.27;;;;;;;2.31;100.00;99186.25;5003374;28;20120;-86
2022/12/04 05:51:36;;;;;;;32.75;19.63;;;;;;;2.20;100.00;99178.78;5001020;28;20107;-87
2022/12/04 05:54:21;;;;;;;30.60;19.00;;;;;;;2.19;100.00;99181.41;5043063;28;20057;-88
2022/12/04 05:57:07;;;;;;;32.08;18.90;;;;;;;2.28;100.00;99185.47;5020564;28;20072;-88
2022/12/04 05:59:51;;;;;;;31.65;19.17;;;;;;;2.19;100.00;99192.59;5053612;28;20082;-89
2022/12/04 06:02:36;;;;;;;33.28;20.33;;;;;;;2.22;100.00;99194.25;5070517;28;20079;-88
2022/12/04 06:05:21;;;;;;;36.80;21.08;;;;;;;2.17;100.00;99202.13;5080272;28;20050;-88
2022/12/04 06:08:06;;;;;;;31.25;19.45;;;;;;;2.27;100.00;99200.13;5052626;28;20044;-89
2022/12/04 06:11:08;;;;;;;30.90;18.75;;;;;;;2.31;100.00;99200.91;5046509;28;20139;-87
2022/12/04 06:13:55;;;;;;;32.80;19.92;;;;;;;2.21;100.00;99213.25;5047961;28;20041;-90
2022/12/04 06:16:43;;;;;;;35.90;20.45;;;;;;;2.13;100.00;99225.53;5040804;28;20040;-88
2022/12/04 06:19:28;;;;;;;31.95;19.33;;;;;;;2.12;100.00;99226.41;5068632;28;20537;-87
2022/12/04 06:22:14;;;;;;;29.10;17.88;;;;;;;2.24;100.00;99220.09;5063173;28;20372;-87
2022/12/04 06:24:59;;;;;;;31.15;19.77;;;;;;;2.08;100.00;99225.66;5068208;28;20058;-89
2022/12/04 06:27:44;;;;;;;30.80;18.98;;;;;;;2.13;100.00;99244.47;5037444;28;20052;-88
2022/12/04 06:30:29;;;;;;;32.83;20.15;;;;;;;2.13;100.00;99231.53;5059507;28;20079;-87
2022/12/04 06:33:14;;;;;;;32.92;19.52;;;;;;;2.07;100.00;99229.94;5046208;28;20056;-87
2022/12/04 06:36:04;;;;;;;31.88;19.40;;;;;;;2.19;100.00;99235.69;5087897;28;20123;-87
2022/12/04 06:38:50;;;;;;;28.55;18.40;;;;;;;2.21;100.00;99247.72;5081081;28;20028;-82
2022/12/04 06:41:42;;;;;;;33.35;19.80;;;;;;;2.19;100.00;99261.53;5057577;28;20048;-88
2022/12/04 06:44:30;;;;;;;29.27;18.13;;;;;;;2.25;100.00;99248.47;5059958;28;20040;-83
2022/12/04 06:47:15;;;;;;;34.72;19.20;;;;;;;2.25;100.00;99245.91;5073005;28;20048;-88
2022/12/04 06:50:03;;;;;;;33.13;18.55;;;;;;;2.10;100.00;99262.66;5070527;28;20071;-86
2022/12/04 06:52:52;;;;;;;35.22;19.73;;;;;;;2.08;100.00;99259.25;5042197;28;20032;-85
2022/12/04 06:55:38;;;;;;;30.38;18.23;;;;;;;2.02;100.00;99264.59;5063885;28;20044;-85
2022/12/04 06:58:24;;;;;;;29.95;19.35;;;;;;;2.03;100.00;99250.75;5070977;28;20120;-83
2022/12/04 07:01:12;;;;;;;29.42;18.75;;;;;;;2.09;100.00;99248.00;5086471;28;20474;-86
2022/12/04 07:03:57;;;;;;;28.98;18.52;;;;;;;2.08;100.00;99236.84;5070794;28;20044;-81
2022/12/04 07:06:43;;;;;;;30.95;19.33;;;;;;;2.04;100.00;99229.22;5075034;28;20056;-86
2022/12/04 07:09:28;;;;;;;29.35;16.95;;;;;;;2.06;100.00;99240.34;5071037;28;20036;-85
2022/12/04 07:12:14;;;;;;;28.48;17.55;;;;;;;2.10;100.00;99249.72;5043336;28;20043;-83
2022/12/04 07:14:59;;;;;;;27.58;17.23;;;;;;;1.97;100.00;99250.03;5067795;28;20052;-86
2022/12/04 07:17:44;;;;;;;25.42;16.50;;;;;;;1.93;100.00;99245.84;5053108;28;20125;-86
2022/12/04 07:20:29;;;;;;;30.60;18.77;;;;;;;1.92;100.00;99228.63;5046076;28;20044;-75
2022/12/04 07:23:14;;;;;;;31.17;19.15;;;;;;;1.88;100.00;99226.16;5080899;28;20083;-83
2022/12/04 07:26:10;;;;;;;29.20;18.85;;;;;;;1.97;100.00;99225.94;5080943;28;20793;-85
2022/12/04 07:28:57;;;;;;;33.55;18.98;;;;;;;2.06;100.00;99237.75;5080904;28;20430;-84
2022/12/04 07:31:43;;;;;;;28.55;17.70;;;;;;;1.99;100.00;99252.59;5079701;28;20136;-85
2022/12/04 07:34:28;;;;;;;28.77;18.20;;;;;;;2.22;100.00;99256.28;5040803;28;20184;-84
2022/12/04 07:37:12;;;;;;;31.50;17.90;;;;;;;2.02;100.00;99252.50;5067561;28;20042;-84
2022/12/04 07:39:57;;;;;;;30.48;16.60;;;;;;;2.22;100.00;99259.72;5056539;28;20048;-79
2022/12/04 07:42:42;;;;;;;28.13;15.77;;;;;;;2.08;100.00;99273.03;5079900;28;20499;-84
2022/12/04 07:45:26;;;;;;;26.67;16.33;;;;;;;2.32;100.00;99270.69;5055702;28;20052;-82
2022/12/04 07:48:11;;;;;;;25.63;15.32;;;;;;;2.20;100.00;99277.03;5067033;28;20138;-82
2022/12/04 07:51:06;;;;;;;29.67;17.10;;;;;;;2.12;100.00;99272.94;5070998;28;20044;-82
2022/12/04 07:53:53;;;;;;;27.58;15.35;;;;;;;2.07;100.00;99268.72;5066536;28;20086;-82
2022/12/04 07:56:37;;;;;;;24.85;15.18;;;;;;;2.09;100.00;99273.84;5087284;28;20040;-82
2022/12/04 07:59:22;;;;;;;27.95;15.65;;;;;;;2.06;100.00;99274.78;5088154;28;20040;-83
2022/12/04 08:02:06;;;;;;;29.75;14.98;;;;;;;2.06;100.00;99269.63;5086274;28;20074;-80
2022/12/04 08:04:51;;;;;;;23.73;14.90;;;;;;;2.03;100.00;99269.72;5084304;28;20071;-80
2022/12/04 08:07:36;;;;;;;25.73;15.18;;;;;;;2.09;100.00;99271.28;5070973;28;20051;-87
2022/12/04 08:10:21;;;;;;;26.20;15.20;;;;;;;1.95;100.00;99269.91;5086654;28;20142;-81
2022/12/04 08:13:06;;;;;;;24.02;14.55;;;;;;;2.06;100.00;99248.09;5068182;28;20109;-83
2022/12/04 08:15:51;;;;;;;24.63;14.98;;;;;;;2.02;100.00;99249.06;5083453;28;20044;-85
2022/12/04 08:18:35;;;;;;;21.90;14.57;;;;;;;1.88;100.00;99250.25;5073170;28;20090;-86
2022/12/04 08:21:24;;;;;;;26.60;15.23;;;;;;;1.97;100.00;99250.03;5032059;28;20052;-83
2022/12/04 08:24:08;;;;;;;26.92;14.95;;;;;;;1.97;100.00;99250.03;5047018;28;20520;-84
2022/12/04 08:26:54;;;;;;;24.67;15.15;;;;;;;1.90;100.00;99247.63;5032609;28;20053;-82
2022/12/04 08:29:38;;;;;;;27.25;16.38;;;;;;;1.88;100.00;99245.09;5001200;28;20937;-84
2022/12/04 08:32:23;;;;;;;24.05;15.40;;;;;;;2.25;100.00;99221.78;5028487;28;20443;-83
2022/12/04 08:35:08;;;;;;;24.20;14.55;;;;;;;2.26;100.00;99237.25;5036191;28;20174;-85
2022/12/04 08:37:53;;;;;;;24.90;15.40;;;;;;;2.08;100.00;99233.41;5032337;28;20051;-84
2022/12/04 08:40:38;;;;;;;26.60;16.15;;;;;;;2.03;100.00;99236.09;5035114;28;20041;-89
2022/12/04 08:43:26;;;;;;;26.73;16.20;;;;;;;2.07;100.00;99236.88;4993958;28;20129;-89
2022/12/04 08:46:15;;;;;;;23.42;15.13;;;;;;;2.13;100.00;99235.84;4997939;28;20050;-89
2022/12/04 08:49:00;;;;;;;24.15;15.88;;;;;;;2.07;100.00;99248.03;4994975;28;20057;-87
2022/12/04 08:51:45;;;;;;;26.40;15.77;;;;;;;2.09;100.00;99250.59;5006822;28;20858;-87
2022/12/04 08:54:30;;;;;;;23.27;14.68;;;;;;;2.27;100.00;99244.09;5000855;28;20061;-86
2022/12/04 08:57:16;;;;;;;24.17;15.00;;;;;;;2.06;100.00;99246.38;4979356;28;20387;-86
2022/12/04 09:00:01;;;;;;;25.13;14.93;;;;;;;2.04;100.00;99258.47;5027279;28;20041;-86
2022/12/04 09:02:49;;;;;;;25.58;15.45;;;;;;;2.25;100.00;99253.66;5031287;28;20484;-84
2022/12/04 09:05:37;;;;;;;26.50;14.63;;;;;;;2.26;100.00;99255.34;5046227;28;20103;-84
2022/12/04 09:08:21;;;;;;;25.17;14.93;;;;;;;2.07;100.00;99267.91;5050951;28;20083;-86
2022/12/04 09:11:10;;;;;;;22.35;13.23;;;;;;;2.16;100.00;99256.47;5045860;28;20400;-85
2022/12/04 09:13:55;;;;;;;22.75;13.10;;;;;;;2.22;100.00;99246.81;5033545;28;20100;-86
2022/12/04 09:16:39;;;;;;;25.50;15.07;;;;;;;2.04;100.00;99255.88;5044942;28;20088;-83
2022/12/04 09:19:24;;;;;;;41.22;19.30;;;;;;;5.46;100.00;99238.91;5049325;28;20159;-80
2022/12/04 09:22:09;;;;;;;65.00;45.00;;;;;;;6.40;100.00;99240.28;5087342;28;20059;-76
2022/12/04 09:24:54;;;;;;;79.47;42.83;;;;;;;4.90;100.00;99226.28;5094245;28;20132;-78
2022/12/04 09:27:42;;;;;;;36.88;19.50;;;;;;;6.11;100.00;99238.03;5063302;28;20052;-79
2022/12/04 09:30:26;;;;;;;24.10;14.73;;;;;;;3.24;100.00;99240.53;5088509;28;20118;-83
2022/12/04 09:33:11;;;;;;;24.10;15.32;;;;;;;2.59;100.00;99238.94;5096657;28;20044;-83
2022/12/04 09:36:00;;;;;;;22.42;14.43;;;;;;;2.29;100.00;99244.91;5094881;28;20050;-83
2022/12/04 09:38:48;;;;;;;23.73;14.02;;;;;;;2.24;100.00;99241.59;5070709;28;20052;-82
2022/12/04 09:41:34;;;;;;;23.73;14.30;;;;;;;2.34;100.00;99229.28;5082301;28;20036;-81
2022/12/04 09:44:28;;;;;;;25.65;14.85;;;;;;;2.31;100.00;99225.03;5078191;28;20078;-81
2022/12/04 09:47:28;;;;;;;23.75;14.10;;;;;;;2.62;100.00;99228.50;5077255;28;20050;-81
2022/12/04 09:50:39;;;;;;;22.48;13.38;;;;;;;2.31;100.00;99232.81;5075777;28;20048;-82
2022/12/04 09:53:28;;;;;;;23.52;14.30;;;;;;;2.08;100.00;99259.25;5079669;28;20036;-86
2022/12/04 09:56:18;;;;;;;23.83;14.35;;;;;;;2.13;100.00;99243.63;5079445;28;20759;-83
2022/12/04 09:59:21;;;;;;;20.05;13.35;;;;;;;2.01;100.00;99235.28;5073961;28;20471;-81
2022/12/04 10:02:41;;;;;;;20.83;13.98;;;;;;;2.15;100.00;99239.25;5091075;28;20037;-84
2022/12/04 10:06:09;;;;;;;19.17;12.00;;;;;;;2.05;100.00;99239.50;5071352;28;20185;-85
2022/12/04 10:09:07;;;;;;;21.38;13.70;;;;;;;2.07;100.00;99226.53;5080252;28;20469;-84
2022/12/04 10:12:05;;;;;;;21.08;12.55;;;;;;;1.99;100.00;99231.06;5074611;28;20053;-81
2022/12/04 10:15:03;;;;;;;17.58;12.48;;;;;;;1.91;100.00;99229.50;5075276;28;20040;-85
2022/12/04 10:18:20;;;;;;;20.17;12.65;;;;;;;1.92;100.00;99236.38;5079969;28;20523;-80
2022/12/04 10:21:20;;;;;;;21.98;12.98;;;;;;;1.89;100.00;99241.63;5074243;28;20050;-81
2022/12/04 10:24:30;;;;;;;19.98;12.63;;;;;;;1.91;100.00;99245.00;5072535;28;20040;-87
2022/12/04 10:27:47;;;;;;;19.05;11.52;;;;;;;1.97;100.00;99239.69;5074482;28;20166;-83
2022/12/04 10:30:36;;;;;;;23.77;13.90;;;;;;;2.09;100.00;99235.94;5077308;28;20140;-81
2022/12/04 10:33:42;;;;;;;19.02;12.85;;;;;;;2.20;100.00;99230.47;5067964;28;20093;-82
2022/12/04 10:36:32;;;;;;;25.65;15.00;;;;;;;7.12;100.00;99221.44;5082417;28;20058;-77
2022/12/04 10:39:25;;;;;;;29.63;16.45;;;;;;;9.17;100.00;99208.56;5083024;28;20055;-76
2022/12/04 10:42:34;;;;;;;25.83;14.48;;;;;;;8.71;100.00;99197.97;5078464;28;20063;-76
2022/12/04 10:45:21;;;;;;;17.35;11.27;;;;;;;4.96;100.00;99209.63;5084594;28;20066;-82
2022/12/04 10:48:17;;;;;;;15.38;10.52;;;;;;;3.75;100.00;99218.19;5084171;28;20047;-78
2022/12/04 10:51:02;;;;;;;16.55;11.30;;;;;;;3.59;100.00;99215.25;5079201;28;20044;-82
2022/12/04 10:53:48;;;;;;;15.60;10.18;;;;;;;2.90;100.00;99199.25;5061675;28;20067;-83
2022/12/04 10:56:33;;;;;;;15.40;10.15;;;;;;;3.23;100.00;99198.25;5077690;28;20050;-83
2022/12/04 10:59:18;;;;;;;16.27;9.95;;;;;;;3.17;100.00;99194.09;5084479;28;20051;-84
2022/12/04 11:02:23;;;;;;;14.82;9.60;;;;;;;3.05;100.00;99199.66;5070657;28;20123;-86
2022/12/04 11:05:24;;;;;;;15.45;9.60;;;;;;;3.14;100.00;99195.94;5086409;28;20059;-84
2022/12/04 11:08:22;;;;;;;16.48;9.00;;;;;;;2.95;100.00;99196.50;5084332;28;20089;-82
2022/12/04 11:11:12;;;;;;;14.27;9.20;;;;;;;2.96;100.00;99193.03;5081818;28;20048;-84
2022/12/04 11:14:21;;;;;;;12.80;8.93;;;;;;;2.69;100.00;99196.38;5079219;28;20113;-82
2022/12/04 11:17:06;;;;;;;13.20;8.43;;;;;;;2.75;100.00;99194.50;5074755;28;20704;-82
2022/12/04 11:20:04;;;;;;;11.93;7.97;;;;;;;2.66;100.00;99191.28;5062881;28;20108;-84
2022/12/04 11:22:57;;;;;;;22.58;11.85;;;;;;;6.01;100.00;99195.91;5066771;28;20099;-78
2022/12/04 11:25:48;;;;;;;14.65;9.57;;;;;;;7.59;100.00;99178.38;5072248;28;20051;-75
2022/12/04 11:28:35;;;;;;;13.55;8.57;;;;;;;4.72;100.00;99175.91;5072666;28;20044;-83
2022/12/04 11:31:21;;;;;;;10.63;6.82;;;;;;;3.85;100.00;99173.81;5083464;28;20062;-81
2022/12/04 11:34:16;;;;;;;12.65;7.10;;;;;;;3.53;100.00;99169.66;5053969;28;20204;-81
2022/12/04 11:37:01;;;;;;;13.15;7.13;;;;;;;3.20;100.00;99165.53;5050152;28;20044;-82
2022/12/04 11:39:46;;;;;;;11.65;7.80;;;;;;;3.40;100.00;99178.72;5053436;28;20036;-82
2022/12/04 11:42:31;;;;;;;11.13;7.68;;;;;;;3.39;100.00;99158.91;5067813;28;20624;-81
2022/12/04 11:45:21;;;;;;;11.48;7.22;;;;;;;3.18;100.00;99149.19;5068662;28;20047;-83
2022/12/04 11:48:17;;;;;;;12.40;7.20;;;;;;;3.35;100.00;99147.78;5082492;28;21255;-83
2022/12/04 11:51:18;;;;;;;10.88;8.25;;;;;;;3.34;100.00;99135.75;5077622;28;20131;-83
2022/12/04 11:54:26;;;;;;;12.63;8.23;;;;;;;3.15;100.00;99135.50;5087609;28;20040;-82
2022/12/04 11:57:46;;;;;;;11.35;8.07;;;;;;;3.20;100.00;99126.69;5076743;28;20064;-81
2022/12/04 12:00:37;;;;;;;13.85;8.18;;;;;;;3.15;100.00;99117.38;5054072;28;20036;-81
2022/12/04 12:03:31;;;;;;;13.07;7.80;;;;;;;3.13;100.00;99122.59;5085830;28;20159;-81
2022/12/04 12:06:33;;;;;;;11.98;7.65;;;;;;;3.25;100.00;99120.53;5087921;28;20348;-83
2022/12/04 12:09:35;;;;;;;11.75;7.30;;;;;;;3.35;100.00;99121.88;5068586;28;20044;-83
2022/12/04 12:12:56;;;;;;;13.85;7.97;;;;;;;3.37;100.00;99112.34;5087883;28;20043;-84
2022/12/04 12:15:43;;;;;;;10.85;7.90;;;;;;;3.27;100.00;99114.38;5084240;28;20639;-80
2022/12/04 12:18:39;;;;;;;10.23;7.60;;;;;;;3.47;100.00;99131.00;5087983;28;20044;-81
2022/12/04 12:21:43;;;;;;;11.73;7.95;;;;;;;3.45;100.00;99136.25;5087100;28;20058;-82
2022/12/04 12:24:33;;;;;;;11.48;7.63;;;;;;;3.75;100.00;99124.91;5088934;28;20044;-85
2022/12/04 12:27:57;;;;;;;13.13;8.05;;;;;;;3.72;100.00;99114.59;5068916;28;20411;-83
2022/12/04 12:30:55;;;;;;;10.52;7.28;;;;;;;3.91;100.00;99106.19;5084353;28;20048;-81
2022/12/04 12:33:48;;;;;;;11.30;7.40;;;;;;;3.98;100.00;99104.25;5070430;28;20188;-82
2022/12/04 12:36:42;;;;;;;10.43;7.53;;;;;;;4.00;100.00;99129.19;5085762;28;20044;-82
2022/12/04 12:39:43;;;;;;;11.60;8.05;;;;;;;4.06;100.00;99115.19;5060317;28;20036;-82
2022/12/04 12:42:43;;;;;;;11.13;7.78;;;;;;;4.12;100.00;99112.38;5070915;28;20040;-83
2022/12/04 12:46:18;;;;;;;10.40;7.38;;;;;;;4.28;100.00;99102.25;5072513;28;20090;-82
2022/12/04 12:49:14;;;;;;;12.40;8.40;;;;;;;4.32;100.00;99108.19;5007621;28;20045;-82
2022/12/04 12:52:13;;;;;;;10.50;7.35;;;;;;;4.18;100.00;99106.94;4980121;28;20123;-83
2022/12/04 12:55:21;;;;;;;10.30;7.18;;;;;;;4.25;100.00;99104.13;5008031;28;20046;-82
2022/12/04 12:58:28;;;;;;;11.50;7.70;;;;;;;4.22;100.00;99115.47;5002685;28;20108;-83
2022/12/04 13:01:18;;;;;;;11.48;7.20;;;;;;;4.27;100.00;99105.78;5006517;28;20191;-82
2022/12/04 13:04:17;;;;;;;11.50;7.28;;;;;;;4.25;100.00;99107.56;5005473;28;20061;-82
2022/12/04 13:07:16;;;;;;;10.95;6.90;;;;;;;4.02;100.00;99111.84;5010002;28;20067;-83
2022/12/04 13:10:09;;;;;;;10.55;6.75;;;;;;;3.86;100.00;99124.50;5010229;28;20528;-81
2022/12/04 13:12:58;;;;;;;10.15;6.80;;;;;;;3.84;100.00;99108.16;5014794;28;20461;-82
2022/12/04 13:15:50;;;;;;;10.30;6.90;;;;;;;4.03;100.00;99103.16;5013212;28;20053;-82
2022/12/04 13:18:40;;;;;;;9.82;7.10;;;;;;;4.28;100.00;99094.47;5013009;28;20053;-82
2022/12/04 13:21:34;;;;;;;9.98;6.93;;;;;;;4.03;100.00;99099.75;5009992;28;20115;-82